• Join FlightAware (Why Join?)
  • Login
  • US Flag 
08:22PM EDT


 

Airport Tracker/Info


-or-


 

Live Flight TrackerFlight Track Log ✈ AAL993 ✈ 11-Jul-2013 ✈ KIAD - KMIA

Flight Track Log - Related Links

Times and Time Zones

All times are in EDT time to prevent confusion due to time zone crossing. See the AAL993 flight status page for this flight to view local times or setup timezone preferences in your user account.

Time Position Orientation Groundspeed Altitude Reporting Facility
EDT Latitude Longitude Course Direction KTS MPH feet Rate Location/Type
02:59PM 38.6118 -77.5159 190° South  Level FlightAware Approximate
03:00PM 38.5017 -77.5368 185° South  Level FlightAware Approximate
03:00PM 38.8130 -77.6840 185° South 287 330 6,700  Level FlightAware
03:00PM 38.7750 -77.6830 179° South 286 329 7,000 480 Climbing FlightAware
03:01PM 38.7390 -77.6810 178° South 282 325 7,200 1,020 Climbing FlightAware
03:01PM 38.7020 -77.6750 173° South 293 337 8,000 2,340 Climbing FlightAware
03:02PM 38.6690 -77.6700 173° South 290 334 9,200 2,460 Climbing FlightAware
03:02PM 38.6070 -77.6540 169° South 311 358 10,900 1,740 Climbing FlightAware
03:03PM 38.5680 -77.6740 202° Southwest 332 382 11,400 1,260 Climbing FlightAware
03:04PM 38.5130 -77.7230 215° Southwest 368 423 12,400 1,680 Climbing FlightAware
03:04PM 38.4580 -77.7700 214° Southwest 385 443 13,700 2,340 Climbing FlightAware
03:05PM 38.3990 -77.8160 211° Southwest 392 451 15,400 2,700 Climbing FlightAware
03:06PM 38.3230 -77.8480 198° South 396 456 17,400 2,640 Climbing FlightAware
03:06PM 38.2740 -77.8690 199° South 399 459 18,600 1,500 Climbing FlightAware
03:07PM 38.2100 -77.8970 199° South 401 461 19,000 300 Climbing FlightAware
03:07PM 38.1390 -77.9280 199° South 400 460 19,000 420 Level FlightAware
03:08PM 38.0650 -77.9590 198° South 404 465 19,600 1,500 Climbing FlightAware
03:09PM 37.9960 -77.9890 199° South 406 467 21,100 1,680 Climbing FlightAware
03:09PM 37.9150 -78.0240 199° South 419 482 22,000 1,320 Climbing FlightAware
03:10PM 37.8440 -78.0560 200° South 419 482 23,000 1,260 Climbing FlightAware
03:11PM 37.7930 -78.0920 209° Southwest 422 486 24,100 1,560 Climbing FlightAware
03:12PM 37.6890 -78.2070 221° Southwest 432 497 25,600 1,800 Climbing FlightAware
03:12PM 37.6220 -78.2830 222° Southwest 436 502 26,700 2,340 Climbing FlightAware
03:13PM 37.5730 -78.3370 221° Southwest 411 473 28,700 2,760 Climbing FlightAware
03:14PM 37.5070 -78.4090 221° Southwest 396 456 30,500 1,620 Climbing FlightAware
03:15PM 37.4450 -78.4780 221° Southwest 408 470 31,200 1,020 Climbing FlightAware
03:15PM 37.3910 -78.5360 220° Southwest 413 475 31,900 1,020 Climbing FlightAware
03:16PM 37.3250 -78.6090 221° Southwest 418 481 32,700 960 Climbing FlightAware
03:17PM 37.2650 -78.6740 221° Southwest 423 487 33,300 1,020 Climbing FlightAware
03:17PM 37.1980 -78.7450 220° Southwest 423 487 34,200 1,140 Climbing FlightAware
03:18PM 37.1320 -78.7970 212° Southwest 426 490 34,900 660 Climbing FlightAware
03:19PM 37.0710 -78.8400 209° Southwest 429 494 35,100 300 Climbing FlightAware
03:19PM 37.0130 -78.8810 209° Southwest 428 493 35,300 120 Climbing FlightAware
03:20PM 36.9430 -78.9300 209° Southwest 428 493 35,300 900 Level FlightAware
03:21PM 36.8710 -78.9840 211° Southwest 37,300 1,320 Climbing FlightAware
03:21PM 36.8070 -79.0300 210° Southwest 37,800 420 Climbing FlightAware
03:22PM 36.7400 -79.0760 209° Southwest 424 488 37,900 60 Climbing FlightAware
03:23PM 36.6880 -79.1130 210° Southwest 424 488 37,900  Level FlightAware
03:23PM 36.6210 -79.1590 209° Southwest 424 488 37,900 60 Level FlightAware
03:24PM 36.5140 -79.2380 211° Southwest 429 494 38,000 60 Climbing FlightAware
03:25PM 36.4550 -79.2810 210° Southwest 429 494 38,000  Level FlightAware
03:26PM 36.3670 -79.3440 210° Southwest 429 494 38,000  Level FlightAware
03:26PM 36.2950 -79.3930 209° Southwest 429 494 38,000  Level FlightAware
03:27PM 36.2240 -79.4420 209° Southwest 429 494 38,000  Level FlightAware
03:28PM 36.3660 -79.3440 29° Northeast 430 495 38,000  Level FlightAware
03:28PM 36.0890 -79.5390 210° Southwest 433 498 38,000  Level FlightAware
03:29PM 36.0200 -79.5870 209° Southwest 434 499 38,000  Level FlightAware
03:30PM 35.9610 -79.6290 210° Southwest 434 499 38,000  Level FlightAware
03:30PM 35.9070 -79.6670 210° Southwest 434 499 38,000  Level FlightAware
03:31PM 35.7980 -79.7410 209° Southwest 437 503 38,000  Level FlightAware
03:32PM 35.7440 -79.7780 209° Southwest 437 503 38,000  Level FlightAware
03:32PM 35.6720 -79.7640 171° South 443 510 38,000  Level FlightAware
03:33PM 35.5910 -79.7860 192° South 443 510 38,000  Level FlightAware
03:33PM 35.5110 -79.8080 193° South 443 510 38,000  Level FlightAware
03:34PM 35.4200 -79.8330 193° South 444 511 38,000  Level FlightAware
03:35PM 35.3160 -79.8610 192° South 445 512 38,000  Level FlightAware
03:36PM 35.2260 -79.8860 193° South 446 513 38,000  Level FlightAware
03:36PM 35.1410 -79.9100 193° South 445 512 38,000  Level FlightAware
03:37PM 35.0580 -79.9350 194° South 448 516 38,000  Level FlightAware
03:38PM 34.9750 -79.9600 194° South 450 518 38,000  Level FlightAware
03:38PM 34.8850 -79.9920 196° South 448 516 38,000  Level FlightAware
03:39PM 34.8050 -80.0200 196° South 449 517 38,000  Level FlightAware
03:40PM 34.7260 -80.0480 196° South 452 520 38,000  Level FlightAware
03:41PM 34.6320 -80.0800 196° South 456 525 38,000  Level FlightAware
03:41PM 34.5490 -80.1080 196° South 458 527 38,000  Level FlightAware
03:42PM 34.4810 -80.1320 196° South 458 527 38,000  Level FlightAware
03:42PM 34.4030 -80.1580 195° South 459 528 38,000  Level FlightAware
03:43PM 34.3040 -80.1920 196° South 462 532 38,000  Level FlightAware
03:44PM 34.2170 -80.2220 196° South 465 535 38,000  Level FlightAware
03:45PM 34.1350 -80.2500 196° South 467 537 38,000  Level FlightAware
03:46PM 34.0140 -80.2910 196° South 468 539 38,000  Level FlightAware
03:46PM 33.9310 -80.3190 196° South 468 539 38,000  Level FlightAware
03:47PM 33.8550 -80.3450 196° South 468 539 38,000  Level FlightAware
03:47PM 33.7770 -80.3710 195° South 468 539 38,000  Level FlightAware
03:48PM 33.6920 -80.4000 196° South 468 539 38,000  Level FlightAware
03:49PM 33.6090 -80.4280 196° South 468 539 38,000  Level FlightAware
03:49PM 33.5240 -80.4560 195° South 468 539 38,000  Level FlightAware
03:50PM 33.4410 -80.4840 196° South 467 537 38,000  Level FlightAware
03:51PM 33.3470 -80.5160 196° South 467 537 38,000  Level FlightAware
03:52PM 33.2660 -80.5430 196° South 468 539 38,000  Level FlightAware
03:53PM 33.1450 -80.5830 195° South 467 537 38,000  Level FlightAware
03:53PM 33.0610 -80.6100 195° South 466 536 38,000  Level FlightAware
03:54PM 32.9620 -80.6430 196° South 470 541 38,000  Level FlightAware
03:55PM 32.8950 -80.6570 190° South 474 545 38,000  Level FlightAware
03:55PM 32.7960 -80.6700 186° South 474 545 38,000  Level FlightAware
03:56PM 32.6900 -80.6840 186° South 474 545 38,000  Level FlightAware
03:57PM 32.6050 -80.6950 186° South 478 550 38,000  Level FlightAware
03:58PM 32.4900 -80.7100 186° South 480 552 38,000  Level FlightAware
03:58PM 32.3900 -80.7230 186° South 481 554 38,000  Level FlightAware
03:59PM 32.3140 -80.7330 186° South 482 555 38,000  Level FlightAware
04:00PM 32.1670 -80.7520 186° South 484 557 38,000  Level FlightAware
04:01PM 32.0860 -80.7620 186° South 484 557 38,000  Level FlightAware
04:01PM 31.9970 -80.7740 187° South 483 556 38,000  Level FlightAware
04:02PM 31.9130 -80.7850 186° South 482 555 38,000  Level FlightAware
04:03PM 31.8210 -80.7960 186° South 482 555 38,000  Level FlightAware
04:04PM 31.7740 -80.8020 186° South 482 555 38,000  Level FlightAware
04:04PM 31.7060 -80.8110 186° South 482 555 38,000  Level FlightAware
04:05PM 31.6140 -80.8220 186° South 482 555 38,000  Level FlightAware
04:06PM 31.5460 -80.8300 186° South 482 555 38,000  Level FlightAware
04:06PM 31.4560 -80.8420 186° South 482 555 38,000  Level FlightAware
04:07PM 31.3880 -80.8500 186° South 482 555 38,000  Level FlightAware
04:08PM 31.2970 -80.8610 186° South 482 555 38,000  Level FlightAware
04:08PM 31.2290 -80.8690 186° South 482 555 38,000  Level FlightAware
04:09PM 31.1370 -80.8810 186° South 482 555 38,000  Level FlightAware
04:10PM 31.0690 -80.8890 186° South 482 555 38,000  Level FlightAware
04:11PM 30.9130 -80.9080 186° South 482 555 38,000  Level FlightAware
04:14PM 30.3640 -80.9200 181° South 480 552 38,000  Level FlightAware
04:14PM 30.2600 -80.9140 177° South 479 551 38,000  Level FlightAware
04:15PM 30.1700 -80.9080 177° South 478 550 38,000  Level FlightAware
04:16PM 30.0820 -80.9030 177° South 477 549 38,000  Level FlightAware
04:17PM 30.0160 -80.8990 177° South 476 548 38,000  Level FlightAware
04:18PM 29.9020 -80.8920 177° South 476 548 38,000  Level FlightAware
04:18PM 29.8350 -80.8880 177° South 476 548 38,000  Level FlightAware
04:19PM 29.7450 -80.8830 177° South 476 548 38,000  Level FlightAware
04:20PM 29.6780 -80.8790 177° South 476 548 38,000  Level FlightAware
04:21PM 29.5880 -80.8730 177° South 476 548 38,000  Level FlightAware
04:21PM 29.3460 -80.8580 177° South 468 539 38,000  Level FlightAware
04:22PM 29.2790 -80.8540 177° South 469 540 38,000  Level FlightAware
04:23PM 29.1810 -80.8480 177° South 469 540 38,000  Level FlightAware
04:23PM 29.0860 -80.8430 177° South 470 541 38,000  Level FlightAware
04:24PM 29.0090 -80.8380 177° South 469 540 38,000  Level FlightAware
04:24PM 28.9190 -80.8320 177° South 467 537 38,000  Level FlightAware
04:25PM 28.8190 -80.8240 176° South 471 542 38,000  Level FlightAware
04:26PM 28.7470 -80.7980 162° South 461 531 38,000  Level FlightAware
04:26PM 28.6630 -80.7670 162° South 460 529 38,000  Level FlightAware
04:27PM 28.5720 -80.7320 161° South 463 533 38,000  Level FlightAware
04:28PM 28.5010 -80.7040 161° South 460 529 38,000  Level FlightAware
04:29PM 28.4320 -80.6600 151° Southeast 448 516 38,000  Level FlightAware
04:29PM 28.3670 -80.5940 138° Southeast 441 507 38,000  Level FlightAware
04:30PM 28.2960 -80.5240 139° Southeast 448 516 38,000  Level FlightAware
04:31PM 28.2410 -80.4710 140° Southeast 449 517 38,000  Level FlightAware
04:31PM 28.1760 -80.4060 139° Southeast 449 517 38,000  Level FlightAware
04:32PM 28.1000 -80.3310 139° Southeast 452 520 38,000  Level FlightAware
04:33PM 28.0490 -80.2800 139° Southeast 452 520 38,000  Level FlightAware
04:33PM 27.9730 -80.2060 139° Southeast 449 517 38,000  Level FlightAware
04:34PM 27.9100 -80.1440 139° Southeast 449 517 38,000  Level FlightAware
04:35PM 27.8460 -80.0820 139° Southeast 451 519 38,000  Level FlightAware
04:35PM 27.7810 -80.0170 138° Southeast 453 521 38,000  Level FlightAware
04:36PM 27.7320 -79.9700 140° Southeast 454 522 38,000  Level FlightAware
04:37PM 27.6680 -79.9080 139° Southeast 455 524 38,000 -1,140 Level FlightAware
04:37PM 27.5940 -79.8360 139° Southeast 454 522 36,400 -2,520 Descending FlightAware
04:38PM 27.5390 -79.7820 139° Southeast 458 527 34,700 -3,120 Descending FlightAware
04:39PM 27.4720 -79.7170 139° Southeast 470 541 32,500 -3,000 Descending FlightAware
04:39PM 27.3970 -79.6480 141° Southeast 467 537 30,500 -2,040 Descending FlightAware
04:40PM 27.3350 -79.6320 167° South 451 519 30,000 -1,080 Descending FlightAware
04:40PM 27.2540 -79.6400 185° South 455 524 29,300 -1,020 Descending FlightAware
04:41PM 27.1590 -79.6490 185° South 455 524 28,600 -1,500 Descending FlightAware
04:42PM 27.0630 -79.6610 186° South 436 502 27,100 -2,100 Descending FlightAware
04:43PM 26.9910 -79.6700 186° South 435 501 25,700 -2,280 Descending FlightAware
04:43PM 26.8990 -79.6800 186° South 423 487 24,000 -2,280 Descending FlightAware
04:44PM 26.8170 -79.6900 186° South 403 464 22,400 -2,160 Descending FlightAware
04:45PM 26.7500 -79.6980 186° South 401 461 21,200 -2,100 Descending FlightAware
04:45PM 26.6740 -79.7070 186° South 391 450 19,700 -2,100 Descending FlightAware
04:46PM 26.6020 -79.7150 186° South 371 427 18,300 -2,040 Descending FlightAware
04:47PM 26.5390 -79.7220 186° South 370 426 17,100 -1,920 Descending FlightAware
04:47PM 26.4730 -79.7380 192° South 346 398 15,900 -1,320 Descending FlightAware
04:48PM 26.4540 -79.7560 220° Southwest 338 389 15,900  Level FlightAware
04:48PM 26.4180 -79.8170 237° Southwest 337 388 15,900  Level FlightAware
04:49PM 26.3860 -79.8700 236° Southwest 339 390 15,900  Level FlightAware
04:49PM 26.3410 -79.9210 225° Southwest 339 390 15,900  Level FlightAware
04:50PM 26.2950 -79.9710 224° Southwest 338 389 15,900  Level FlightAware
04:51PM 26.2360 -80.0180 216° Southwest 334 384 15,900 -600 Level FlightAware
04:52PM 26.1800 -80.0340 194° South 332 382 15,100 -1,740 Descending FlightAware
04:52PM 26.1100 -80.0540 194° South 335 386 13,500 -2,040 Descending FlightAware
04:53PM 26.0490 -80.0710 194° South 330 380 12,200 -1,800 Descending FlightAware
04:54PM 25.9880 -80.0880 194° South 315 362 11,100 -1,380 Descending FlightAware
04:54PM 25.9660 -80.1000 206° Southwest 311 358 10,900 -840 Descending FlightAware
04:54PM 25.9520 -80.1170 228° Southwest 297 342 10,700 -1,200 Descending FlightAware
04:54PM 25.9470 -80.1310 248° West 300 345 10,400 -1,620 Descending FlightAware
04:55PM 25.9440 -80.1550 262° West 298 343 10,000 -1,620 Descending FlightAware
04:55PM 25.9410 -80.1940 265° West 298 343 9,300 -1,740 Descending FlightAware
04:56PM 25.9380 -80.2410 266° West 298 343 8,400 -1,320 Descending FlightAware
04:56PM 25.9360 -80.2800 267° West 287 330 8,100 -720 Descending FlightAware
04:56PM 25.9340 -80.3170 267° West 267 307 7,800 -720 Descending FlightAware
04:57PM 25.9320 -80.3430 265° West 254 292 7,600 -840 Descending FlightAware
04:57PM 25.9310 -80.3760 268° West 235 270 7,200 -1,500 Descending FlightAware
04:58PM 25.9240 -80.4070 256° West 228 262 6,300 -2,100 Descending FlightAware
04:58PM 25.9090 -80.4320 236° Southwest 233 268 5,400 -2,040 Descending FlightAware
04:59PM 25.8910 -80.4620 236° Southwest 225 259 4,400 -2,040 Descending FlightAware
04:59PM 25.8710 -80.4840 225° Southwest 221 254 3,500 -1,860 Descending FlightAware
04:59PM 25.8620 -80.4860 191° South 214 246 3,300 -1,440 Descending FlightAware
05:00PM 25.8410 -80.4790 163° South 213 245 2,800 -1,260 Descending FlightAware
05:00PM 25.8340 -80.4690 128° Southeast 209 241 2,600 -480 Descending FlightAware
05:00PM 25.8310 -80.4540 103° East 196 226 2,600 -240 Level FlightAware
05:00PM 25.8360 -80.4360 73° East 179 206 2,500 -840 Descending FlightAware
05:01PM 25.8420 -80.4160 72° East 177 204 2,000 -960 Descending FlightAware
05:01PM 25.8460 -80.3960 77° East 173 199 1,800 -660 Descending FlightAware
05:01PM 25.8380 -80.3770 115° Southeast 164 189 1,500 -840 Descending FlightAware
05:02PM 25.8280 -80.3590 122° Southeast 155 178 1,100 -840 Descending FlightAware
05:02PM 25.8160 -80.3360 120° Southeast 159 183 700 -900 Descending FlightAware
05:03PM 25.8070 -80.3180 119° Southeast 163 188 300 -1,020 Descending FlightAware
05:03PM 25.7990 -80.3010 118° Southeast 161 185 -840 Descending FlightAware
05:04PM 25.7930 -80.2900 121° Southeast 120 138  Level FlightAware
05:04PM 25.7910 -80.2850 114° Southeast 20 23  Level FlightAware
05:04PM 25.7920 -80.2840 42° Northeast 27 31  Level FlightAware